createdAt,value
2019-02-19T00:01:17.008Z,99.90
2019-02-19T00:03:49.119Z,99.90
2019-02-19T00:06:19.621Z,99.90
2019-02-19T00:08:51.483Z,99.90
2019-02-19T00:11:21.943Z,99.90
2019-02-19T00:13:52.724Z,99.90
2019-02-19T00:16:23.178Z,99.90
2019-02-19T00:18:53.674Z,99.90
2019-02-19T00:21:24.119Z,99.90
2019-02-19T00:26:24.391Z,99.90
2019-02-19T00:31:24.553Z,99.90
2019-02-19T00:36:24.771Z,99.90
2019-02-19T00:38:56.228Z,99.90
2019-02-19T00:41:26.765Z,99.90
2019-02-19T00:43:57.276Z,99.90
2019-02-19T00:46:27.757Z,99.90
2019-02-19T00:48:58.265Z,99.90
2019-02-19T00:51:28.747Z,99.90
2019-02-19T00:53:59.318Z,99.90
2019-02-19T00:56:31.660Z,99.90
2019-02-19T00:59:02.139Z,99.90
2019-02-19T01:01:32.632Z,99.90
2019-02-19T01:04:03.125Z,99.90
2019-02-19T01:06:33.641Z,99.90
2019-02-19T01:09:05.485Z,99.90
2019-02-19T01:11:35.980Z,99.90
2019-02-19T01:14:07.274Z,99.90
2019-02-19T01:16:37.727Z,99.90
2019-02-19T01:19:08.104Z,99.90
2019-02-19T01:21:38.464Z,99.90
2019-02-19T01:24:08.872Z,99.90
2019-02-19T01:26:39.272Z,99.90
2019-02-19T01:29:09.692Z,99.90
2019-02-19T01:31:41.303Z,99.90
2019-02-19T01:34:11.675Z,99.90
2019-02-19T01:36:42.079Z,99.90
2019-02-19T01:39:12.519Z,99.90
2019-02-19T01:41:42.919Z,99.90
2019-02-19T01:44:13.299Z,99.90
2019-02-19T01:46:43.694Z,99.90
2019-02-19T01:49:15.008Z,99.90
2019-02-19T01:51:45.388Z,99.90
2019-02-19T01:54:15.784Z,99.90
2019-02-19T01:56:46.156Z,99.90
2019-02-19T01:59:16.557Z,99.90
2019-02-19T02:01:46.984Z,99.90
2019-02-19T02:04:17.348Z,99.90
2019-02-19T02:06:47.752Z,99.90
2019-02-19T02:09:18.155Z,99.90
2019-02-19T02:11:48.569Z,99.90
2019-02-19T02:14:18.998Z,99.90
2019-02-19T02:16:49.407Z,99.90
2019-02-19T02:19:19.792Z,99.90
2019-02-19T02:21:50.191Z,99.90
2019-02-19T02:24:20.661Z,99.90
2019-02-19T02:26:51.478Z,99.90
2019-02-19T02:29:21.991Z,99.90
2019-02-19T02:31:52.416Z,99.90
2019-02-19T02:34:22.799Z,99.90
2019-02-19T02:36:54.295Z,99.90
2019-02-19T02:39:24.651Z,99.90
2019-02-19T02:41:55.007Z,99.90
2019-02-19T02:44:25.356Z,99.90
2019-02-19T02:46:55.784Z,99.90
2019-02-19T02:49:26.224Z,99.90
2019-02-19T02:54:26.381Z,99.90
2019-02-19T02:59:27.436Z,99.90
2019-02-19T03:01:57.876Z,99.90
2019-02-19T03:04:28.310Z,99.90
2019-02-19T03:07:10.730Z,99.90
2019-02-19T03:09:41.177Z,99.90
2019-02-19T03:12:11.573Z,99.90
2019-02-19T03:14:42.040Z,99.90
2019-02-19T03:17:12.459Z,99.90
2019-02-19T03:19:43.192Z,99.90
2019-02-19T03:22:13.547Z,99.90
2019-02-19T03:24:44.144Z,99.90
2019-02-19T03:27:14.501Z,99.90
2019-02-19T03:29:44.966Z,99.90
2019-02-19T03:32:15.393Z,99.90
2019-02-19T03:34:45.840Z,99.90
2019-02-19T03:37:16.296Z,99.90
2019-02-19T03:39:46.679Z,99.90
2019-02-19T03:42:17.461Z,99.90
2019-02-19T03:44:47.923Z,99.90
2019-02-19T03:47:18.600Z,99.90
2019-02-19T03:49:49.040Z,99.90
2019-02-19T03:52:19.439Z,99.90
2019-02-19T03:54:49.865Z,99.90
2019-02-19T03:57:20.319Z,99.90
2019-02-19T03:59:50.680Z,99.90
2019-02-19T04:02:21.064Z,99.90
2019-02-19T04:04:51.493Z,99.90
2019-02-19T04:07:21.929Z,99.90
2019-02-19T04:09:52.391Z,99.90
2019-02-19T04:12:22.760Z,99.90
2019-02-19T04:14:53.203Z,99.90
2019-02-19T04:17:23.606Z,99.90
2019-02-19T04:19:54.069Z,99.90
2019-02-19T04:22:24.533Z,99.90
2019-02-19T04:24:54.952Z,99.90
2019-02-19T04:27:25.308Z,99.90
2019-02-19T04:29:55.780Z,99.90
2019-02-19T04:32:26.236Z,99.90
2019-02-19T04:34:56.631Z,99.90
2019-02-19T04:37:26.982Z,99.90
2019-02-19T04:39:58.444Z,99.90
2019-02-19T04:42:28.875Z,99.90
2019-02-19T04:47:28.972Z,99.90
2019-02-19T04:49:59.333Z,99.90
2019-02-19T04:52:31.552Z,99.90
2019-02-19T04:55:01.946Z,99.90
2019-02-19T04:57:33.724Z,99.90
2019-02-19T05:00:04.204Z,99.90
2019-02-19T05:02:34.697Z,99.90
2019-02-19T05:05:05.443Z,99.90
2019-02-19T05:07:35.831Z,99.90
2019-02-19T05:10:06.652Z,99.90
2019-02-19T05:15:07.140Z,99.90
2019-02-19T05:17:37.532Z,99.90
2019-02-19T05:20:08.047Z,99.90
2019-02-19T05:22:38.526Z,99.90
2019-02-19T05:25:09.187Z,99.90
2019-02-19T05:27:39.614Z,99.90
2019-02-19T05:30:11.717Z,99.90
2019-02-19T05:32:42.084Z,99.90
2019-02-19T05:35:12.436Z,99.90
2019-02-19T05:37:42.912Z,99.90
2019-02-19T05:40:14.508Z,99.90
2019-02-19T05:42:44.992Z,99.90
2019-02-19T05:45:15.360Z,99.90
2019-02-19T05:47:45.835Z,99.90
2019-02-19T05:50:16.195Z,99.90
2019-02-19T05:52:46.547Z,99.90
2019-02-19T05:55:16.949Z,99.90
2019-02-19T05:57:47.310Z,99.90
2019-02-19T06:00:17.765Z,99.90
2019-02-19T06:02:48.196Z,99.90
2019-02-19T06:05:18.603Z,99.90
2019-02-19T06:07:48.951Z,99.90
2019-02-19T06:10:19.423Z,99.90
2019-02-19T06:12:49.895Z,99.90
2019-02-19T06:15:20.268Z,99.90
2019-02-19T06:17:50.642Z,99.90
2019-02-19T06:20:21.171Z,99.90
2019-02-19T06:22:51.566Z,99.90
2019-02-19T06:25:22.037Z,99.90
2019-02-19T06:27:54.806Z,99.90
2019-02-19T06:30:25.252Z,99.90
2019-02-19T06:32:55.735Z,99.90
2019-02-19T06:35:26.104Z,99.90
2019-02-19T06:37:57.759Z,99.90
2019-02-19T06:40:29.271Z,99.90
2019-02-19T06:45:29.383Z,99.90
2019-02-19T06:50:29.487Z,99.90
2019-02-19T06:55:29.526Z,99.90
2019-02-19T06:57:59.991Z,99.90
2019-02-19T07:00:30.376Z,99.90
2019-02-19T07:03:06.165Z,99.90
2019-02-19T07:05:36.612Z,99.90
2019-02-19T07:08:06.988Z,99.90
2019-02-19T07:10:37.444Z,99.90
2019-02-19T07:13:07.816Z,99.90
2019-02-19T07:15:38.332Z,97.80
2019-02-19T07:18:08.700Z,96.70
2019-02-19T07:20:39.103Z,99.20
2019-02-19T07:23:09.501Z,97.70
2019-02-19T07:25:39.863Z,92.20
2019-02-19T07:28:10.291Z,91.90
2019-02-19T07:30:40.648Z,91.70
2019-02-19T07:33:11.065Z,90.70
2019-02-19T07:35:41.507Z,90.70
2019-02-19T07:38:11.916Z,91.20
2019-02-19T07:40:42.432Z,91.50
2019-02-19T07:43:12.795Z,91.50
2019-02-19T07:45:43.233Z,92.20
2019-02-19T07:48:13.636Z,90.20
2019-02-19T07:50:44.060Z,90.00
2019-02-19T07:53:14.445Z,87.60
2019-02-19T07:55:44.899Z,87.70
2019-02-19T07:58:15.256Z,83.50
2019-02-19T08:00:45.685Z,84.70
2019-02-19T08:03:18.439Z,80.30
2019-02-19T08:05:50.080Z,79.50
2019-02-19T08:08:23.208Z,75.70
2019-02-19T08:10:54.327Z,76.20
2019-02-19T08:13:26.487Z,77.20
2019-02-19T08:15:57.044Z,75.60
2019-02-19T08:18:29.741Z,73.70
2019-02-19T08:21:00.157Z,74.90
2019-02-19T08:23:30.808Z,74.70
2019-02-19T08:26:01.245Z,71.30
2019-02-19T08:28:31.721Z,71.20
2019-02-19T08:31:02.620Z,69.60
2019-02-19T08:33:34.080Z,67.90
2019-02-19T08:36:05.505Z,68.90
2019-02-19T08:38:36.021Z,65.40
2019-02-19T08:41:06.471Z,65.80
2019-02-19T08:43:37.924Z,64.70
2019-02-19T08:46:08.682Z,62.60
2019-02-19T08:48:39.233Z,60.70
2019-02-19T08:51:09.704Z,60.30
2019-02-19T08:53:42.361Z,59.90
2019-02-19T08:56:12.830Z,58.80
2019-02-19T08:58:43.486Z,59.70
2019-02-19T09:01:14.312Z,59.30
2019-02-19T09:03:44.767Z,59.60
2019-02-19T09:06:15.136Z,59.50
2019-02-19T09:08:45.613Z,59.80
2019-02-19T09:11:16.260Z,60.10
2019-02-19T09:13:46.619Z,59.50
2019-02-19T09:16:17.097Z,58.50
2019-02-19T09:18:47.556Z,57.80
2019-02-19T09:21:18.015Z,56.70
2019-02-19T09:23:48.409Z,57.00
2019-02-19T09:26:18.820Z,58.40
2019-02-19T09:28:49.208Z,57.50
2019-02-19T09:31:19.575Z,56.20
2019-02-19T09:33:50.036Z,54.60
2019-02-19T09:36:20.408Z,53.00
2019-02-19T09:38:50.759Z,54.20
2019-02-19T09:41:21.115Z,54.20
2019-02-19T09:43:51.525Z,53.50
2019-02-19T09:46:22.047Z,53.50
2019-02-19T09:48:52.399Z,52.30
2019-02-19T09:51:22.775Z,53.40
2019-02-19T09:53:53.142Z,54.00
2019-02-19T09:56:23.539Z,54.20
2019-02-19T09:58:53.921Z,54.70
2019-02-19T10:01:24.779Z,54.70
2019-02-19T10:03:55.163Z,53.80
2019-02-19T10:06:25.657Z,53.20
2019-02-19T10:08:56.083Z,52.00
2019-02-19T10:11:26.528Z,49.00
2019-02-19T10:13:57.019Z,52.30
2019-02-19T10:16:27.800Z,54.40
2019-02-19T10:18:58.264Z,54.20
2019-02-19T10:21:28.668Z,54.30
2019-02-19T10:23:59.412Z,55.00
2019-02-19T10:26:29.836Z,54.00
2019-02-19T10:29:00.240Z,53.00
2019-02-19T10:31:30.607Z,53.90
2019-02-19T10:34:01.063Z,54.80
2019-02-19T10:36:31.408Z,54.70
2019-02-19T10:39:01.810Z,51.60
2019-02-19T10:41:32.316Z,50.50
2019-02-19T10:44:02.688Z,50.20
2019-02-19T10:46:33.084Z,51.10
2019-02-19T10:49:03.527Z,51.50
2019-02-19T10:51:33.928Z,51.00
2019-02-19T10:54:05.419Z,51.60
2019-02-19T10:56:35.803Z,52.70
2019-02-19T10:59:06.284Z,53.70
2019-02-19T11:01:37.619Z,53.70
2019-02-19T11:04:08.073Z,54.80
2019-02-19T11:06:39.065Z,56.10
2019-02-19T11:09:09.582Z,57.80
2019-02-19T11:11:40.019Z,58.80
2019-02-19T11:14:10.421Z,59.30
2019-02-19T11:16:40.821Z,61.10
2019-02-19T11:19:11.295Z,57.30
2019-02-19T11:21:41.676Z,57.60
2019-02-19T11:24:12.055Z,55.00
2019-02-19T11:26:42.448Z,53.90
2019-02-19T11:29:12.938Z,53.90
2019-02-19T11:31:43.368Z,55.00
2019-02-19T11:34:13.747Z,54.00
2019-02-19T11:36:44.148Z,53.90
2019-02-19T11:39:14.800Z,53.10
2019-02-19T11:41:45.212Z,50.90
2019-02-19T11:44:16.608Z,47.90
2019-02-19T11:46:46.991Z,47.90
2019-02-19T11:49:17.416Z,49.20
2019-02-19T11:51:47.787Z,49.70
2019-02-19T11:54:18.137Z,49.60
2019-02-19T11:56:48.484Z,50.30
2019-02-19T11:59:18.828Z,49.80
2019-02-19T12:01:51.046Z,50.20
2019-02-19T12:04:21.403Z,51.00
2019-02-19T12:06:51.828Z,50.50
2019-02-19T12:09:22.221Z,52.20
2019-02-19T12:11:52.616Z,55.80
2019-02-19T12:14:23.324Z,66.10
2019-02-19T12:16:53.800Z,71.90
2019-02-19T12:19:24.228Z,74.30
2019-02-19T12:21:54.695Z,79.40
2019-02-19T12:24:25.240Z,82.30
2019-02-19T12:26:55.692Z,86.50
2019-02-19T12:29:26.086Z,87.10
2019-02-19T12:31:56.496Z,90.80
2019-02-19T12:34:26.900Z,90.60
2019-02-19T12:36:57.292Z,91.50
2019-02-19T12:39:27.700Z,93.30
2019-02-19T12:41:58.168Z,97.00
2019-02-19T12:44:28.564Z,97.20
2019-02-19T12:46:59.446Z,97.90
2019-02-19T12:49:29.891Z,98.90
2019-02-19T12:52:00.385Z,98.50
2019-02-19T12:54:34.024Z,99.30
2019-02-19T12:59:34.202Z,99.90
2019-02-19T13:04:34.364Z,99.90
2019-02-19T13:09:35.414Z,99.90
2019-02-19T13:12:05.777Z,99.90
2019-02-19T13:14:36.273Z,99.90
2019-02-19T13:17:06.688Z,99.90
2019-02-19T13:19:37.063Z,99.90
2019-02-19T13:22:07.520Z,99.90
2019-02-19T13:24:37.968Z,99.90
2019-02-19T13:27:08.359Z,99.90
2019-02-19T13:29:38.812Z,99.90
2019-02-19T13:32:10.146Z,99.90
2019-02-19T13:34:40.552Z,99.90
2019-02-19T13:37:10.954Z,99.90
2019-02-19T13:39:41.424Z,99.90
2019-02-19T13:42:11.909Z,99.90
2019-02-19T13:44:42.328Z,99.90
2019-02-19T13:47:12.768Z,99.90
2019-02-19T13:49:43.259Z,99.90
2019-02-19T13:52:22.554Z,99.90
2019-02-19T13:54:58.823Z,99.90
2019-02-19T13:57:29.263Z,99.90
2019-02-19T13:59:59.737Z,99.90
2019-02-19T14:02:30.120Z,99.90
2019-02-19T14:05:00.512Z,99.90
2019-02-19T14:07:30.883Z,99.90
2019-02-19T14:10:01.278Z,99.90
2019-02-19T14:12:31.795Z,99.90
2019-02-19T14:15:15.067Z,99.90
2019-02-19T14:17:45.468Z,99.90
2019-02-19T14:20:52.989Z,99.90
2019-02-19T14:23:42.341Z,99.90
2019-02-19T14:26:31.617Z,99.90
2019-02-19T14:29:27.119Z,99.90
2019-02-19T14:32:28.524Z,99.90
2019-02-19T14:35:29.763Z,99.90
2019-02-19T14:38:17.647Z,99.90
2019-02-19T14:41:16.523Z,99.90
2019-02-19T14:43:58.132Z,99.90
2019-02-19T14:46:47.812Z,99.90
2019-02-19T14:49:37.491Z,99.90
2019-02-19T14:52:26.689Z,99.90
2019-02-19T14:55:21.994Z,99.90
2019-02-19T14:58:14.343Z,99.90
2019-02-19T15:01:12.591Z,99.90
2019-02-19T15:03:55.032Z,99.90
2019-02-19T15:06:56.499Z,99.90
2019-02-19T15:09:44.275Z,99.90
2019-02-19T15:12:45.834Z,99.90
2019-02-19T15:15:33.771Z,99.90
2019-02-19T15:18:17.827Z,99.90
2019-02-19T15:21:05.620Z,99.90
2019-02-19T15:23:44.288Z,99.90
2019-02-19T15:26:36.395Z,99.90
2019-02-19T15:29:25.756Z,99.90
2019-02-19T15:32:15.507Z,99.90
2019-02-19T15:35:07.820Z,99.90
2019-02-19T15:38:04.147Z,99.90
2019-02-19T15:40:53.406Z,99.90
2019-02-19T15:43:32.409Z,99.90
2019-02-19T15:46:18.313Z,99.90
2019-02-19T15:49:05.899Z,99.90
2019-02-19T15:51:53.338Z,99.90
2019-02-19T15:54:39.767Z,99.90
2019-02-19T15:57:27.551Z,99.90
2019-02-19T16:00:24.619Z,99.90
2019-02-19T16:03:05.861Z,99.90
2019-02-19T16:05:58.371Z,99.90
2019-02-19T16:08:40.687Z,99.90
2019-02-19T16:11:17.355Z,99.90
2019-02-19T16:14:06.207Z,99.90
2019-02-19T16:16:51.592Z,99.90
2019-02-19T16:19:39.476Z,99.90
2019-02-19T16:22:28.771Z,99.90
2019-02-19T16:25:16.721Z,99.90
2019-02-19T16:28:06.111Z,99.90
2019-02-19T16:30:49.626Z,99.90
2019-02-19T16:33:31.876Z,99.90
2019-02-19T16:36:17.256Z,99.90
2019-02-19T16:39:00.544Z,99.90
2019-02-19T16:41:48.583Z,99.90
2019-02-19T16:44:49.744Z,99.90
2019-02-19T16:47:33.268Z,99.90
2019-02-19T16:50:28.312Z,99.90
2019-02-19T16:53:07.979Z,99.90
2019-02-19T16:56:00.336Z,99.90
2019-02-19T16:58:49.707Z,99.90
2019-02-19T17:01:38.967Z,99.90
2019-02-19T17:04:16.850Z,99.90
2019-02-19T17:07:29.913Z,99.90
2019-02-19T17:10:10.756Z,99.90
2019-02-19T17:13:06.020Z,99.90
2019-02-19T17:15:53.727Z,99.90
2019-02-19T17:18:57.964Z,99.90
2019-02-19T17:21:35.088Z,99.90
2019-02-19T17:24:22.799Z,99.90
2019-02-19T17:27:12.127Z,99.90
2019-02-19T17:29:51.002Z,99.90
2019-02-19T17:32:39.146Z,99.90
2019-02-19T17:35:31.400Z,99.90
2019-02-19T17:38:14.681Z,99.90
2019-02-19T17:40:47.620Z,99.90
2019-02-19T17:43:46.577Z,99.90
2019-02-19T17:46:36.633Z,99.90
2019-02-19T17:49:25.977Z,99.90
2019-02-19T17:52:24.431Z,99.90
2019-02-19T17:55:25.407Z,99.90
2019-02-19T17:58:26.567Z,99.90
2019-02-19T18:01:03.799Z,99.90
2019-02-19T18:04:04.720Z,99.90
2019-02-19T18:06:51.359Z,99.90
2019-02-19T18:09:38.828Z,99.90
2019-02-19T18:12:19.705Z,99.90
2019-02-19T18:15:20.624Z,99.90
2019-02-19T18:18:09.886Z,99.90
2019-02-19T18:20:47.259Z,99.90
2019-02-19T18:23:12.319Z,99.90
2019-02-19T18:25:42.680Z,99.90
2019-02-19T18:28:13.040Z,99.90
2019-02-19T18:30:44.380Z,99.90
2019-02-19T18:33:14.761Z,99.90
2019-02-19T18:35:45.105Z,99.90
2019-02-19T18:38:15.480Z,99.90
2019-02-19T18:40:45.837Z,99.90
2019-02-19T18:43:16.250Z,99.90
2019-02-19T18:45:46.681Z,99.90
2019-02-19T18:48:17.120Z,99.90
2019-02-19T18:50:49.030Z,99.90
2019-02-19T18:53:19.624Z,99.90
2019-02-19T18:55:51.193Z,99.90
2019-02-19T18:58:21.640Z,99.90
2019-02-19T19:00:52.022Z,99.90
2019-02-19T19:03:22.476Z,99.90
2019-02-19T19:05:52.853Z,99.90
2019-02-19T19:08:23.220Z,99.90
2019-02-19T19:10:53.644Z,99.90
2019-02-19T19:13:24.031Z,99.90
2019-02-19T19:15:54.444Z,99.90
2019-02-19T19:18:26.103Z,99.90
2019-02-19T19:23:26.132Z,99.90
2019-02-19T19:28:26.184Z,99.90
2019-02-19T19:33:26.230Z,99.90
2019-02-19T19:38:28.527Z,99.90
2019-02-19T19:40:59.848Z,99.90
2019-02-19T19:43:30.183Z,99.90
2019-02-19T19:46:00.543Z,99.90
2019-02-19T19:48:30.886Z,99.90
2019-02-19T19:51:01.325Z,99.90
2019-02-19T19:53:31.689Z,99.90
2019-02-19T19:56:02.059Z,99.90
2019-02-19T19:58:32.413Z,99.90
2019-02-19T20:01:02.791Z,99.90
2019-02-19T20:03:33.548Z,99.90
2019-02-19T20:06:03.991Z,99.90
2019-02-19T20:08:34.417Z,99.90
2019-02-19T20:11:05.742Z,99.90
2019-02-19T20:13:36.196Z,99.90
2019-02-19T20:16:06.544Z,99.90
2019-02-19T20:18:39.129Z,99.90
2019-02-19T20:21:09.072Z,99.90
2019-02-19T20:23:39.516Z,99.90
2019-02-19T20:26:10.934Z,99.90
2019-02-19T20:28:41.419Z,99.90
2019-02-19T20:31:12.861Z,99.90
2019-02-19T20:33:43.292Z,99.90
2019-02-19T20:36:13.713Z,99.90
2019-02-19T20:38:44.198Z,99.90
2019-02-19T20:43:44.328Z,99.90
2019-02-19T20:46:14.780Z,99.90
2019-02-19T20:48:45.124Z,99.90
2019-02-19T20:51:15.587Z,99.90
2019-02-19T20:53:46.083Z,99.90
2019-02-19T20:56:16.531Z,99.90
2019-02-19T20:58:46.975Z,99.90
2019-02-19T21:01:17.495Z,99.90
2019-02-19T21:03:47.915Z,99.90
2019-02-19T21:06:18.560Z,99.90
2019-02-19T21:08:48.983Z,99.90
2019-02-19T21:11:19.436Z,99.90
2019-02-19T21:13:49.856Z,99.90
2019-02-19T21:16:20.228Z,99.90
2019-02-19T21:18:50.644Z,99.90
2019-02-19T21:21:21.091Z,99.90
2019-02-19T21:23:51.598Z,99.90
2019-02-19T21:26:22.088Z,99.90
2019-02-19T21:28:52.575Z,99.90
2019-02-19T21:31:22.915Z,99.90
2019-02-19T21:33:53.268Z,99.90
2019-02-19T21:36:23.712Z,99.90
2019-02-19T21:38:54.128Z,99.90
2019-02-19T21:41:24.622Z,99.90
2019-02-19T21:43:55.035Z,99.90
2019-02-19T21:46:25.412Z,99.90
2019-02-19T21:48:55.947Z,99.90
2019-02-19T21:51:26.316Z,99.90
2019-02-19T21:53:56.655Z,99.90
2019-02-19T21:56:27.072Z,99.90
2019-02-19T21:58:57.486Z,99.90
2019-02-19T22:01:27.968Z,99.90
2019-02-19T22:03:58.388Z,99.90
2019-02-19T22:06:28.846Z,99.90
2019-02-19T22:08:59.296Z,99.90
2019-02-19T22:11:29.740Z,99.90
2019-02-19T22:16:29.683Z,99.90
2019-02-19T22:22:03.162Z,99.90
2019-02-19T22:24:37.303Z,99.90
2019-02-19T22:27:08.351Z,99.90
2019-02-19T22:29:39.196Z,99.90
2019-02-19T22:32:10.168Z,99.90
2019-02-19T22:34:40.520Z,99.90
2019-02-19T22:39:43.068Z,99.90
2019-02-19T22:42:13.416Z,99.90
2019-02-19T22:44:43.831Z,99.90
2019-02-19T22:47:14.215Z,99.90
2019-02-19T22:49:44.586Z,99.90
2019-02-19T22:52:14.925Z,99.90
2019-02-19T22:54:57.087Z,99.90
2019-02-19T22:57:27.441Z,99.90
2019-02-19T22:59:57.847Z,99.90
2019-02-19T23:02:29.836Z,99.90
2019-02-19T23:05:00.257Z,99.90
2019-02-19T23:07:30.611Z,99.90
2019-02-19T23:10:00.972Z,99.90
2019-02-19T23:12:32.700Z,99.90
2019-02-19T23:15:03.031Z,99.90
2019-02-19T23:17:33.671Z,99.90
2019-02-19T23:20:04.042Z,99.90
2019-02-19T23:22:34.456Z,99.90
2019-02-19T23:25:04.864Z,99.90
2019-02-19T23:27:35.336Z,99.90
2019-02-19T23:30:06.123Z,99.90
2019-02-19T23:32:37.056Z,99.90
2019-02-19T23:35:32.505Z,99.90
2019-02-19T23:38:02.862Z,99.90
2019-02-19T23:40:33.300Z,99.90
2019-02-19T23:43:03.647Z,99.90
2019-02-19T23:45:34.072Z,99.90
2019-02-19T23:48:04.407Z,99.90
2019-02-19T23:50:34.781Z,99.90
2019-02-19T23:53:05.111Z,99.90
2019-02-19T23:55:36.432Z,99.90
2019-02-19T23:58:07.748Z,99.90
